Airfield :
LOGIN :

Register | Disclaimer

   EN    FR    IT 

 










Legend :    VFR   Marginal VFR   IFR   Intensive IFR   Very Intensive IFR
Visi :
Ceiling :
>= 8 km
>= 3000ft
5 to 8 km
1000 to 3000 ft
1500m to 5 km
500 to 1000 ft
800 to 1500m
200 to 500 ft
< 800m
< 200 ft
Symbols :   Thunderstorms  Fog  Heavy snow  Heavy precipitations  Wind > 20 kt
SIGMETs :     Misc.  Thunderstorms  Icing  Turbulence  Mountain Waves  Volcanic Ashes







- Airport Elevation : 527 ft
- IATA code : DBV


LDDU - Dubrovnik

CURRENT METAR :
  • 262030Z VRB01KT CAVOK 16/11 Q1013 NOSIG

EXPIRED METARs :
  • 262000Z 05002KT CAVOK 18/11 Q1013 NOSIG
  • 261930Z 09003KT 010V130 CAVOK 19/11 Q1013 NOSIG
  • 261900Z 09003KT 050V120 CAVOK 19/11 Q1012 NOSIG
  • 261830Z 08004KT 050V110 CAVOK 20/10 Q1012 NOSIG
  • 261800Z 08003KT 020V130 CAVOK 20/11 Q1012 NOSIG

TAF TAF LDDU
Valid from the 26 at 18:00 until the 27 at 18:00 UTC


261725Z 2618/2718 VRB02KT CAVOK TX24/2712Z TN12/2703Z
BECMG 2710/2712 26008KT
No reported NOTAMs for that airfield.



MET'MAP, your aeronautical weather chart ! - Copyright ORBIFLY December 2007 - Disclaimer

ORBIFLY MET'MAP TEAM :

Programming & Development : Alexandra Zaïnal
Concept & Development : Baudouin d'Aumeries
Co-Development & Prog : Marc-Olivier Méhu
Technical & hardware support : Manuel Goepfert

Contact : metmap@orbifly.com




SOURCES & CREDITS :

   NOAA